PWSweather.com
Personal Weather Stations
Station Observations
WISCHPK61
Green Bay Schmitt Park, Green Bay, WI 54311

Green Bay Schmitt ParkGreen Bay, WI 54311

Lat: 44.514277, Lon: -87.935067

Elevation: 735

Station Type: Acu Rite Pro Weather Center model 02032C

http://greenbayweathercam.com

High Low Average
Temperature 36.3°F2.4°C 30.0°F-1.1°C 34.0°F1.1°C
Dew Point 36.0°F2.2°C 17.6°F-8.0°C 31.3°F-0.4°C
Winds 2.3 mph 3.7 kmh Calm Calm Calm WNWCalm WNW
Wind Gusts 3.5 mph5.6 kmh -- --
Humidity 99% 58% 91%
Pressure 29.37 in994.6 mb 28.67 in970.9 mb -
Precipitation 0.07 in1.8 mm - -
Hour Temp Dew Point Humidity Winds Wind Gusts Pressure Precip Precip Rate Daily Precip Total
12:00 AM 35.6°F2.0°C 35.3°F1.8°C 99% Calm Calm 5.8 mph9.3 kmh 28.64 in969.9 mb - 0.01 in0.3 mm 0.01 in0.3 mm
01:00 AM 35.6°F2.0°C 35.3°F1.8°C 99% Calm Calm -- 28.67 in970.9 mb - 0.00 in0.0 mm 0.01 in0.3 mm
02:00 AM 36.1°F2.3°C 35.8°F2.1°C 99% Calm Calm -- 28.71 in972.2 mb - 0.00 in0.0 mm 0.01 in0.3 mm
03:00 AM 36.3°F2.4°C 36.0°F2.2°C 99% Calm Calm -- 28.75 in973.6 mb - 0.00 in0.0 mm 0.01 in0.3 mm
04:00 AM 36.3°F2.4°C 36.0°F2.2°C 99% Calm Calm -- 28.80 in975.3 mb - 0.00 in0.0 mm 0.01 in0.3 mm
05:00 AM 35.4°F1.9°C 35.1°F1.7°C 99% Calm Calm -- 28.83 in976.3 mb - 0.01 in0.3 mm 0.01 in0.3 mm
06:00 AM 35.1°F1.7°C 34.8°F1.6°C 99% Calm Calm -- 28.87 in977.7 mb - 0.00 in0.0 mm 0.01 in0.3 mm
07:00 AM 34.7°F1.5°C 32.6°F0.3°C 92% Calm Calm -- 28.91 in979.0 mb - 0.00 in0.0 mm 0.01 in0.3 mm
08:00 AM 34.2°F1.2°C 33.9°F1.1°C 99% Calm Calm -- 28.94 in980.0 mb - 0.02 in0.5 mm 0.03 in0.8 mm
09:00 AM 34.0°F1.1°C 33.7°F0.9°C 99% Calm Calm -- 28.98 in981.4 mb - 0.00 in0.0 mm 0.03 in0.8 mm
10:00 AM 34.2°F1.2°C 29.5°F-1.4°C 83% 1.2 mph NNW1.9 kmh NNW 2.3 mph3.7 kmh 29.00 in982.1 mb - 0.00 in0.0 mm 0.03 in0.8 mm
11:00 AM 34.0°F1.1°C 33.7°F0.9°C 99% Calm Calm -- 29.03 in983.1 mb - 0.03 in0.8 mm 0.06 in1.5 mm
12:00 PM 33.4°F0.8°C 33.1°F0.6°C 99% Calm Calm -- 29.06 in984.1 mb - 0.00 in0.0 mm 0.06 in1.5 mm
01:00 PM 35.2°F1.8°C 34.9°F1.6°C 99% 2.3 mph NW3.7 kmh NW 3.5 mph5.6 kmh 29.08 in984.8 mb - 0.00 in0.0 mm 0.06 in1.5 mm
02:00 PM 33.9°F1.1°C 33.7°F0.9°C 99% Calm Calm -- 29.10 in985.4 mb - 0.01 in0.3 mm 0.07 in1.8 mm
03:00 PM 34.5°F1.4°C 25.0°F-3.9°C 68% 1.2 mph WNW1.9 kmh WNW -- 29.12 in986.1 mb - 0.00 in0.0 mm 0.07 in1.8 mm
04:00 PM 34.9°F1.6°C 23.2°F-4.9°C 62% Calm Calm -- 29.15 in987.1 mb - 0.00 in0.0 mm 0.07 in1.8 mm
05:00 PM 35.1°F1.7°C 28.9°F-1.7°C 78% Calm Calm -- 29.18 in988.1 mb - 0.00 in0.0 mm 0.07 in1.8 mm
06:00 PM 34.0°F1.1°C 33.7°F0.9°C 99% 1.2 mph NW1.9 kmh NW -- 29.21 in989.2 mb - 0.00 in0.0 mm 0.07 in1.8 mm
07:00 PM 33.3°F0.7°C 33.0°F0.6°C 99% Calm Calm -- 29.25 in990.5 mb - 0.00 in0.0 mm 0.07 in1.8 mm
08:00 PM 32.7°F0.4°C 32.5°F0.3°C 99% Calm Calm -- 29.29 in991.9 mb - 0.00 in0.0 mm 0.07 in1.8 mm
09:00 PM 31.6°F-0.2°C 18.9°F-7.3°C 59% Calm Calm -- 29.31 in992.6 mb - 0.00 in0.0 mm 0.07 in1.8 mm
10:00 PM 31.3°F-0.4°C 31.1°F-0.5°C 99% Calm Calm -- 29.33 in993.2 mb - 0.00 in0.0 mm 0.07 in1.8 mm
11:00 PM 30.6°F-0.8°C 17.6°F-8.0°C 58% Calm Calm -- 29.36 in994.2 mb - 0.00 in0.0 mm 0.07 in1.8 mm